Time;durP1;ratioP1;P1;durP2;ratioP2;P2;SDS_P1;SDS_P2;PMS_P1;PMS_P2;Temp;Humidity;BMP_temperature;BMP_pressure;BME280_temperature;BME280_humidity;BME280_pressure;Samples;Min_cycle;Max_cycle;Signal;HPM_P1;HPM_P2
2022/01/23 00:00:00;;;;;;;4.03;2.10;;;7.00;79.20;;;;;;6276658;22;20054;-76
2022/01/23 00:02:28;;;;;;;5.70;2.90;;;7.00;79.20;;;;;;6277448;22;20083;-76
2022/01/23 00:04:54;;;;;;;6.60;2.75;;;7.00;79.30;;;;;;6275797;22;20058;-76
2022/01/23 00:07:20;;;;;;;4.88;2.30;;;7.00;79.30;;;;;;6277657;22;20079;-77
2022/01/23 00:09:46;;;;;;;4.57;2.25;;;7.10;79.40;;;;;;6275438;22;20026;-77
2022/01/23 00:12:16;;;;;;;4.28;2.10;;;7.10;79.40;;;;;;6277284;22;20059;-77
2022/01/23 00:17:33;;;;;;;5.97;2.40;;;7.10;79.40;;;;;;6277186;22;20023;-76
2022/01/23 00:20:01;;;;;;;4.55;2.65;;;7.20;79.50;;;;;;6275490;22;20091;-77
2022/01/23 00:22:39;;;;;;;5.65;3.05;;;7.10;79.40;;;;;;6275331;22;20027;-76
2022/01/23 00:30:35;;;;;;;5.10;2.80;;;7.10;79.30;;;;;;6276063;22;20305;-77
2022/01/23 00:33:05;;;;;;;3.75;2.33;;;7.10;79.30;;;;;;6276562;22;20064;-76
2022/01/23 00:35:31;;;;;;;5.07;2.15;;;7.10;79.30;;;;;;6277121;22;20090;-77
2022/01/23 00:37:58;;;;;;;6.40;2.40;;;7.10;79.30;;;;;;6276714;22;20016;-76
2022/01/23 00:40:26;;;;;;;6.03;2.88;;;7.10;79.30;;;;;;6277405;22;20015;-76
2022/01/23 00:42:54;;;;;;;3.95;2.42;;;7.10;79.30;;;;;;6278692;22;20024;-76
2022/01/23 00:45:32;;;;;;;5.65;2.78;;;7.10;79.30;;;;;;6279061;22;20023;-77
2022/01/23 00:48:09;;;;;;;6.35;3.08;;;7.10;79.30;;;;;;6277419;22;20055;-76
2022/01/23 00:50:41;;;;;;;7.57;3.33;;;7.10;79.30;;;;;;6276635;22;20019;-77
2022/01/23 00:53:10;;;;;;;9.00;4.70;;;7.10;79.20;;;;;;6277345;22;20019;-76
2022/01/23 00:55:37;;;;;;;6.72;3.55;;;7.10;79.20;;;;;;6277992;22;20016;-76
2022/01/23 00:58:03;;;;;;;7.78;4.05;;;7.10;79.20;;;;;;6276655;22;20101;-75
2022/01/23 01:00:29;;;;;;;8.65;3.65;;;7.10;79.20;;;;;;6276797;22;20024;-76
2022/01/23 01:02:55;;;;;;;8.95;4.20;;;7.10;79.10;;;;;;6278399;22;20026;-76
2022/01/23 01:05:21;;;;;;;7.50;3.33;;;7.10;79.20;;;;;;6278923;22;20011;-76
2022/01/23 01:07:47;;;;;;;8.07;4.50;;;7.10;79.20;;;;;;6278156;22;20457;-76
2022/01/23 01:10:21;;;;;;;4.47;2.88;;;7.10;79.20;;;;;;6277272;22;20063;-76
2022/01/23 01:12:50;;;;;;;5.97;3.35;;;7.10;79.20;;;;;;6278353;22;20012;-76
2022/01/23 01:39:05;;;;;;;7.10;3.47;;;7.00;79.30;;;;;;6276226;22;20020;-76
2022/01/23 01:41:30;;;;;;;6.07;3.17;;;7.00;79.30;;;;;;6276731;22;20444;-75
2022/01/23 01:43:57;;;;;;;5.05;3.38;;;7.00;79.30;;;;;;6276654;22;20023;-75
2022/01/23 01:46:23;;;;;;;6.50;2.97;;;7.00;79.30;;;;;;6278213;22;20332;-75
2022/01/23 01:48:49;;;;;;;4.63;3.05;;;7.00;79.30;;;;;;6276637;22;20016;-75
2022/01/23 01:51:16;;;;;;;4.95;3.10;;;7.10;79.40;;;;;;6278054;22;20016;-75
2022/01/23 01:53:48;;;;;;;5.22;2.83;;;7.00;79.30;;;;;;6301749;22;20486;-75
2022/01/23 01:56:14;;;;;;;5.30;3.10;;;7.10;79.30;;;;;;6277889;22;20015;-75
2022/01/23 02:09:15;;;;;;;;;;;7.00;79.30;;;;;;6278140;22;20020;-75
2022/01/23 02:12:12;;;;;;;6.20;3.13;;;7.00;79.10;;;;;;6277435;22;19919;-76
2022/01/23 02:55:21;;;;;;;7.30;2.42;;;7.10;79.30;;;;;;6183703;23;20021;-75
2022/01/23 03:00:14;;;;;;;3.63;2.45;;;7.20;79.40;;;;;;6179843;22;20064;-74
2022/01/23 03:02:46;;;;;;;4.20;2.20;;;7.10;79.30;;;;;;6291639;22;20015;-75
2022/01/23 03:05:22;;;;;;;3.72;2.42;;;7.10;79.60;;;;;;6282392;22;20340;-75
2022/01/23 03:10:19;;;;;;;4.43;2.58;;;7.10;79.20;;;;;;6275616;22;20428;-75
2022/01/23 03:15:58;;;;;;;4.68;2.50;;;7.10;79.20;;;;;;6251977;22;20073;-75
2022/01/23 03:26:26;;;;;;;3.60;2.58;;;7.10;79.00;;;;;;6277389;22;20024;-75
2022/01/23 03:34:06;;;;;;;5.57;2.58;;;7.10;79.10;;;;;;6275051;22;20394;-75
2022/01/23 03:36:32;;;;;;;4.50;2.50;;;7.10;79.00;;;;;;6277575;22;20019;-75
2022/01/23 03:38:58;;;;;;;4.30;2.72;;;7.10;79.00;;;;;;6275160;22;20440;-76
2022/01/23 03:41:24;;;;;;;4.00;2.30;;;7.10;79.00;;;;;;6276755;22;20043;-76
2022/01/23 03:43:49;;;;;;;6.40;2.75;;;7.10;79.00;;;;;;6275686;22;20012;-76
2022/01/23 03:51:44;;;;;;;7.78;2.28;;;7.10;79.10;;;;;;6274725;22;20020;-74
2022/01/23 03:54:09;;;;;;;5.50;2.50;;;7.10;79.10;;;;;;6276699;22;20085;-74
2022/01/23 03:56:35;;;;;;;3.13;2.10;;;7.10;79.00;;;;;;6275160;22;20027;-74
2022/01/23 03:59:01;;;;;;;3.65;2.38;;;7.10;79.00;;;;;;6276666;22;20487;-74
2022/01/23 04:01:26;;;;;;;3.63;2.50;;;7.10;79.00;;;;;;6276701;22;20023;-74
2022/01/23 04:03:56;;;;;;;3.83;2.28;;;7.10;79.00;;;;;;6275186;22;20023;-74
2022/01/23 04:06:21;;;;;;;3.67;2.13;;;7.10;79.00;;;;;;6275594;22;20058;-75
2022/01/23 04:08:49;;;;;;;3.58;2.45;;;7.10;79.00;;;;;;6276848;22;20289;-74
2022/01/23 04:11:14;;;;;;;5.47;2.58;;;7.10;79.00;;;;;;6275372;22;20016;-74
2022/01/23 04:13:46;;;;;;;6.50;2.55;;;7.10;79.00;;;;;;6276766;22;20065;-74
2022/01/23 04:45:59;;;;;;;4.05;2.50;;;7.10;78.80;;;;;;6276443;22;20455;-73
2022/01/23 04:59:46;;;;;;;6.05;2.90;;;7.00;78.70;;;;;;6279027;22;20028;-74
2022/01/23 05:05:01;;;;;;;6.75;2.63;;;7.00;78.70;;;;;;6160129;23;20021;-74
2022/01/23 05:07:29;;;;;;;6.65;3.22;;;7.00;78.80;;;;;;6159607;23;20024;-74
2022/01/23 05:09:55;;;;;;;3.80;2.35;;;7.00;78.80;;;;;;6184560;23;20084;-74
2022/01/23 05:12:27;;;;;;;5.13;2.83;;;7.00;78.70;;;;;;6184747;23;20516;-74
2022/01/23 05:14:53;;;;;;;4.88;2.70;;;7.00;79.20;;;;;;6159782;23;20025;-74
2022/01/23 05:17:19;;;;;;;5.45;3.00;;;6.90;78.70;;;;;;6184519;23;20020;-75
2022/01/23 05:19:45;;;;;;;8.68;3.00;;;7.00;78.80;;;;;;6184022;23;20021;-74
2022/01/23 05:24:52;;;;;;;4.63;2.75;;;7.00;78.70;;;;;;6160053;23;20099;-74
2022/01/23 05:27:21;;;;;;;5.15;3.17;;;7.00;78.80;;;;;;6158956;23;20053;-75
2022/01/23 05:29:47;;;;;;;6.20;3.20;;;7.00;78.80;;;;;;6159625;23;20533;-75
2022/01/23 05:32:13;;;;;;;5.72;3.42;;;6.90;78.70;;;;;;6184765;23;20056;-75
2022/01/23 05:34:40;;;;;;;4.35;2.95;;;6.90;78.70;;;;;;6184338;23;20021;-74
2022/01/23 05:37:06;;;;;;;6.95;2.90;;;6.90;78.70;;;;;;6184394;23;20024;-74
2022/01/23 05:39:33;;;;;;;4.10;2.92;;;6.90;78.70;;;;;;6183605;23;20112;-75
2022/01/23 05:42:06;;;;;;;4.88;2.72;;;6.90;78.70;;;;;;6215787;22;20008;-75
2022/01/23 05:44:34;;;;;;;5.78;3.17;;;6.90;78.80;;;;;;6276844;22;20090;-74
2022/01/23 05:46:59;;;;;;;4.07;2.92;;;6.90;78.80;;;;;;6278552;22;20022;-75
2022/01/23 05:49:25;;;;;;;6.25;3.05;;;6.90;78.80;;;;;;6276352;22;20027;-75
2022/01/23 05:51:50;;;;;;;4.93;2.97;;;6.90;78.80;;;;;;6278534;22;20091;-75
2022/01/23 05:54:16;;;;;;;5.18;2.70;;;6.90;78.80;;;;;;6278036;22;20015;-74
2022/01/23 05:56:42;;;;;;;5.32;2.78;;;6.90;78.80;;;;;;6277882;22;20058;-75
2022/01/23 05:59:08;;;;;;;5.38;3.22;;;6.90;78.80;;;;;;6277924;22;20313;-75
2022/01/23 06:01:34;;;;;;;5.88;3.10;;;6.90;78.70;;;;;;6277880;22;20019;-75
2022/01/23 06:04:00;;;;;;;6.80;3.90;;;6.90;78.70;;;;;;6250411;22;20016;-75
2022/01/23 06:06:25;;;;;;;5.28;3.10;;;6.90;78.70;;;;;;6250283;22;20016;-75
2022/01/23 06:08:51;;;;;;;6.45;3.10;;;6.90;78.70;;;;;;6277239;22;20024;-75
2022/01/23 06:11:17;;;;;;;5.40;2.90;;;6.90;78.70;;;;;;6276478;22;20336;-75
2022/01/23 06:13:42;;;;;;;5.60;2.92;;;6.90;78.70;;;;;;6277789;22;20092;-74
2022/01/23 06:16:08;;;;;;;5.72;2.58;;;6.90;78.70;;;;;;6276242;22;20115;-74
2022/01/23 06:18:36;;;;;;;4.18;2.53;;;6.90;78.70;;;;;;6277636;22;20082;-74
2022/01/23 06:21:02;;;;;;;7.20;4.05;;;6.90;78.70;;;;;;6277919;22;20019;-75
2022/01/23 06:23:31;;;;;;;5.43;2.92;;;6.90;78.70;;;;;;6276403;22;20099;-75
2022/01/23 06:25:57;;;;;;;4.05;2.42;;;6.90;78.70;;;;;;6276285;22;20020;-75
2022/01/23 06:28:48;;;;;;;5.07;3.05;;;6.80;78.70;;;;;;6277658;22;20039;-75
2022/01/23 06:31:14;;;;;;;6.15;3.42;;;6.90;78.80;;;;;;6275933;22;20019;-75
2022/01/23 06:33:39;;;;;;;6.13;3.70;;;6.90;78.80;;;;;;6277882;22;20087;-75
2022/01/23 06:36:05;;;;;;;5.70;3.55;;;6.90;78.70;;;;;;6277516;22;20057;-75
2022/01/23 06:38:31;;;;;;;5.95;3.63;;;6.90;78.80;;;;;;6277759;22;20012;-75
2022/01/23 06:40:56;;;;;;;5.53;3.20;;;6.90;78.70;;;;;;6275918;22;20027;-75
2022/01/23 06:43:22;;;;;;;6.72;3.72;;;6.90;78.80;;;;;;6275878;22;20039;-75
2022/01/23 06:45:47;;;;;;;6.32;3.17;;;6.90;78.70;;;;;;6277634;22;20023;-75
2022/01/23 06:48:13;;;;;;;6.93;3.42;;;6.90;78.70;;;;;;6277698;22;20440;-74
2022/01/23 06:50:39;;;;;;;4.55;2.85;;;6.80;78.70;;;;;;6278057;22;20474;-75
2022/01/23 06:53:04;;;;;;;6.03;3.13;;;6.90;78.70;;;;;;6277861;22;20070;-75
2022/01/23 06:55:30;;;;;;;4.65;2.85;;;6.80;78.60;;;;;;6277748;22;20016;-75
2022/01/23 06:57:56;;;;;;;5.78;3.03;;;6.90;78.70;;;;;;6275061;22;20016;-75
2022/01/23 07:00:21;;;;;;;6.45;3.10;;;6.80;78.60;;;;;;6275926;22;20020;-75
2022/01/23 07:02:47;;;;;;;5.00;3.13;;;6.80;78.60;;;;;;6277464;22;20016;-75
2022/01/23 07:05:13;;;;;;;5.78;3.63;;;6.80;78.60;;;;;;6277777;22;20454;-75
2022/01/23 07:07:38;;;;;;;5.60;2.92;;;6.80;78.60;;;;;;6274965;22;20451;-75
2022/01/23 07:10:05;;;;;;;5.35;3.10;;;6.80;78.70;;;;;;6275458;22;20051;-75
2022/01/23 07:12:31;;;;;;;5.47;3.17;;;6.80;78.70;;;;;;6277261;22;20039;-75
2022/01/23 07:14:56;;;;;;;4.55;3.28;;;6.90;78.80;;;;;;6276876;22;20467;-75
2022/01/23 07:17:22;;;;;;;5.95;3.63;;;6.80;78.70;;;;;;6276685;22;20019;-75
2022/01/23 07:19:49;;;;;;;5.53;4.10;;;6.80;78.70;;;;;;6277149;22;20024;-75
2022/01/23 07:22:14;;;;;;;6.15;3.38;;;6.80;78.70;;;;;;6275519;22;20081;-74
2022/01/23 07:24:40;;;;;;;8.48;4.63;;;6.90;78.70;;;;;;6277201;22;20435;-75
2022/01/23 07:27:14;;;;;;;7.70;4.60;;;6.80;78.70;;;;;;6275440;22;20047;-74
2022/01/23 07:29:42;;;;;;;7.30;4.57;;;6.90;78.70;;;;;;6276784;22;20020;-75
2022/01/23 07:32:09;;;;;;;9.85;5.68;;;6.80;79.10;;;;;;6275968;22;20023;-75
2022/01/23 07:34:34;;;;;;;9.38;5.60;;;6.90;78.80;;;;;;6279094;22;20012;-75
2022/01/23 07:37:00;;;;;;;9.55;5.78;;;6.90;78.70;;;;;;6280899;22;20016;-75
2022/01/23 07:39:26;;;;;;;12.30;7.30;;;6.90;78.70;;;;;;6280180;22;20027;-74
2022/01/23 07:41:53;;;;;;;13.20;8.02;;;6.90;78.70;;;;;;6277303;22;20065;-74
2022/01/23 07:44:18;;;;;;;9.75;6.72;;;7.00;78.80;;;;;;6274957;22;20023;-75
2022/01/23 07:46:44;;;;;;;7.95;5.95;;;6.80;78.70;;;;;;6276862;22;20435;-75
2022/01/23 07:49:10;;;;;;;10.30;6.30;;;6.80;78.70;;;;;;6277282;22;20023;-75
2022/01/23 07:51:35;;;;;;;9.52;5.63;;;6.80;78.70;;;;;;6275363;22;20095;-75
2022/01/23 07:54:02;;;;;;;10.52;6.13;;;6.90;78.70;;;;;;6277037;22;20020;-75
2022/01/23 07:56:28;;;;;;;9.88;6.35;;;6.90;78.80;;;;;;6277261;22;20019;-75
2022/01/23 07:58:54;;;;;;;11.45;7.38;;;6.90;78.80;;;;;;6276627;22;20051;-75
2022/01/23 08:01:19;;;;;;;10.60;6.10;;;6.90;78.80;;;;;;6275203;22;20022;-76
2022/01/23 08:03:45;;;;;;;9.77;6.85;;;6.90;78.80;;;;;;6274509;22;20043;-75
2022/01/23 08:06:13;;;;;;;8.95;6.22;;;6.90;78.80;;;;;;6275028;22;20150;-75
2022/01/23 08:08:39;;;;;;;13.68;8.27;;;6.90;78.80;;;;;;6276503;22;20023;-76
2022/01/23 08:11:08;;;;;;;12.77;7.50;;;6.90;78.80;;;;;;6276591;22;20016;-76
2022/01/23 08:13:34;;;;;;;12.30;7.35;;;6.90;78.80;;;;;;6276816;22;20020;-76
2022/01/23 08:16:00;;;;;;;12.32;8.00;;;6.90;78.80;;;;;;6249318;22;20098;-75
2022/01/23 08:18:26;;;;;;;13.05;8.13;;;6.90;78.90;;;;;;6274650;22;20019;-75
2022/01/23 08:20:52;;;;;;;11.20;7.22;;;6.90;78.80;;;;;;6276674;22;20035;-75
2022/01/23 08:23:18;;;;;;;12.55;9.02;;;6.90;78.90;;;;;;6275178;22;20400;-76
2022/01/23 08:25:44;;;;;;;14.98;8.25;;;6.90;79.30;;;;;;6276684;22;20032;-76
2022/01/23 08:28:10;;;;;;;12.85;8.25;;;6.90;78.90;;;;;;6276648;22;20012;-75
2022/01/23 08:30:36;;;;;;;16.48;10.73;;;6.90;78.90;;;;;;6277044;22;20015;-76
2022/01/23 08:33:02;;;;;;;13.55;9.45;;;6.90;78.90;;;;;;6275026;22;20034;-75
2022/01/23 08:35:28;;;;;;;13.80;8.43;;;6.90;78.90;;;;;;6276495;22;20023;-75
2022/01/23 08:37:54;;;;;;;17.27;10.20;;;6.90;78.90;;;;;;6276705;22;20012;-75
2022/01/23 08:40:33;;;;;;;14.75;9.25;;;6.90;78.90;;;;;;6276616;22;20062;-74
2022/01/23 08:42:59;;;;;;;14.70;9.20;;;6.90;78.90;;;;;;6275890;22;20351;-76
2022/01/23 08:45:25;;;;;;;16.15;9.50;;;6.90;78.90;;;;;;6275060;22;20064;-76
2022/01/23 08:47:50;;;;;;;16.00;10.35;;;6.90;78.90;;;;;;6274924;22;20073;-75
2022/01/23 08:50:16;;;;;;;12.27;8.90;;;6.90;78.90;;;;;;6274638;22;20440;-75
2022/01/23 08:52:41;;;;;;;17.95;10.82;;;6.90;79.00;;;;;;6276528;22;20467;-76
2022/01/23 08:55:08;;;;;;;16.17;10.63;;;6.90;79.00;;;;;;6274901;22;20023;-75
2022/01/23 08:57:33;;;;;;;16.60;9.82;;;6.90;79.00;;;;;;6276969;22;20016;-76
2022/01/23 08:59:59;;;;;;;19.05;12.18;;;7.00;79.10;;;;;;6275078;22;20031;-77
2022/01/23 09:02:25;;;;;;;16.75;9.50;;;7.00;79.10;;;;;;6278113;22;20012;-76
2022/01/23 09:04:51;;;;;;;15.13;9.63;;;7.00;79.10;;;;;;6278432;22;20058;-75
2022/01/23 09:07:16;;;;;;;15.15;9.80;;;7.00;79.20;;;;;;6277903;22;20012;-76
2022/01/23 09:09:42;;;;;;;14.30;8.88;;;7.00;79.20;;;;;;6277740;22;20012;-75
2022/01/23 09:12:40;;;;;;;15.05;9.75;;;7.00;79.10;;;;;;6276607;22;20027;-76
2022/01/23 09:15:07;;;;;;;12.77;9.32;;;7.00;79.20;;;;;;6278613;22;20025;-75
2022/01/23 09:17:34;;;;;;;16.60;12.30;;;7.10;79.30;;;;;;6277581;22;20027;-75
2022/01/23 09:20:00;;;;;;;16.80;13.90;;;7.10;79.30;;;;;;6276304;22;20015;-75
2022/01/23 09:22:29;;;;;;;18.00;14.05;;;7.10;79.30;;;;;;6278421;22;20023;-74
2022/01/23 09:24:58;;;;;;;18.65;13.35;;;7.10;79.30;;;;;;6276024;22;20023;-73
2022/01/23 09:27:24;;;;;;;16.35;13.18;;;7.10;79.30;;;;;;6278537;22;20440;-74
2022/01/23 09:29:53;;;;;;;23.88;18.48;;;7.10;79.30;;;;;;6276503;22;20014;-75
2022/01/23 09:32:22;;;;;;;22.40;16.73;;;7.20;79.40;;;;;;6276266;22;20020;-75
2022/01/23 09:34:48;;;;;;;19.08;14.73;;;7.30;79.50;;;;;;6278388;22;20047;-74
2022/01/23 09:37:17;;;;;;;17.65;12.18;;;7.20;79.40;;;;;;6278403;22;20015;-75
2022/01/23 09:39:45;;;;;;;13.35;9.93;;;7.20;79.50;;;;;;6277545;22;20027;-74
2022/01/23 09:42:22;;;;;;;15.07;8.45;;;7.30;79.60;;;;;;6278166;22;20444;-74
2022/01/23 09:44:52;;;;;;;11.52;8.50;;;7.30;79.60;;;;;;6278119;22;20012;-74
2022/01/23 09:47:20;;;;;;;11.95;7.90;;;7.30;79.70;;;;;;6276336;22;20046;-74
2022/01/23 09:49:47;;;;;;;10.90;7.20;;;7.30;79.70;;;;;;6276071;22;20427;-74
2022/01/23 09:52:15;;;;;;;9.88;6.47;;;7.40;79.80;;;;;;6278233;22;20015;-73
2022/01/23 09:54:42;;;;;;;11.60;7.35;;;7.30;79.70;;;;;;6278426;22;20069;-74
2022/01/23 09:57:10;;;;;;;9.25;5.80;;;7.40;79.80;;;;;;6278272;22;20383;-73
2022/01/23 09:59:37;;;;;;;8.90;5.90;;;7.60;79.90;;;;;;6277707;22;20343;-75
2022/01/23 10:02:03;;;;;;;10.60;5.97;;;7.40;79.70;;;;;;6275968;22;20098;-75
2022/01/23 10:04:29;;;;;;;7.47;5.50;;;7.50;79.70;;;;;;6277859;22;20015;-75
2022/01/23 10:06:56;;;;;;;9.50;5.70;;;7.50;79.70;;;;;;6276625;22;20069;-76
2022/01/23 10:09:24;;;;;;;8.13;5.88;;;7.50;79.60;;;;;;6277585;22;20073;-76
2022/01/23 10:11:50;;;;;;;9.18;6.55;;;7.50;79.50;;;;;;6278039;22;20364;-75
2022/01/23 10:14:18;;;;;;;7.97;5.95;;;7.60;79.60;;;;;;6277591;22;20020;-76
2022/01/23 10:16:47;;;;;;;8.65;6.20;;;7.60;79.60;;;;;;6278287;22;20335;-76
2022/01/23 10:19:17;;;;;;;7.95;5.68;;;7.60;79.60;;;;;;6277922;22;20031;-76
2022/01/23 10:21:45;;;;;;;8.18;5.85;;;7.60;79.50;;;;;;6278468;22;20018;-76
2022/01/23 10:24:13;;;;;;;7.60;5.72;;;7.70;79.50;;;;;;6277855;22;20042;-76
2022/01/23 10:26:52;;;;;;;7.47;5.10;;;7.80;79.50;;;;;;6276021;22;20445;-75
2022/01/23 10:29:30;;;;;;;10.93;6.85;;;7.70;79.30;;;;;;6277495;22;20474;-75
2022/01/23 10:32:07;;;;;;;7.93;5.50;;;7.80;79.30;;;;;;6275736;22;20340;-77
2022/01/23 10:34:49;;;;;;;8.05;5.90;;;7.80;79.30;;;;;;6275907;22;20019;-75
2022/01/23 10:37:40;;;;;;;6.05;3.80;;;7.90;79.30;;;;;;6275949;22;20083;-74
2022/01/23 10:40:29;;;;;;;6.90;4.40;;;7.90;79.00;;;;;;6276312;22;20062;-75
2022/01/23 10:50:53;;;;;;;6.55;4.85;;;8.00;78.90;;;;;;6277874;22;20019;-75
2022/01/23 10:53:19;;;;;;;6.80;5.53;;;8.00;78.90;;;;;;6278006;22;20030;-75
2022/01/23 10:55:45;;;;;;;6.43;4.72;;;8.10;78.80;;;;;;6275509;22;20051;-77
2022/01/23 10:58:20;;;;;;;5.28;3.60;;;8.10;78.80;;;;;;6275409;22;20024;-76
2022/01/23 11:00:45;;;;;;;6.45;4.00;;;8.10;78.80;;;;;;6275976;22;20458;-77
2022/01/23 11:03:13;;;;;;;5.38;4.03;;;8.10;78.70;;;;;;6277444;22;20023;-76
2022/01/23 11:05:40;;;;;;;7.13;3.70;;;8.20;78.60;;;;;;6275495;22;20022;-76
2022/01/23 11:08:19;;;;;;;5.15;3.72;;;8.20;78.50;;;;;;6275736;22;20012;-75
2022/01/23 11:10:53;;;;;;;4.55;3.10;;;8.30;78.60;;;;;;6275803;22;20042;-76
2022/01/23 11:19:26;;;;;;;4.40;2.72;;;8.40;78.30;;;;;;6276088;22;20019;-76
2022/01/23 11:21:53;;;;;;;4.05;2.47;;;8.30;78.30;;;;;;6277864;22;20062;-75
2022/01/23 11:24:20;;;;;;;4.07;2.05;;;8.40;78.20;;;;;;6277353;22;20035;-75
2022/01/23 11:26:46;;;;;;;4.22;2.17;;;8.40;78.00;;;;;;6276800;22;20016;-75
2022/01/23 11:29:14;;;;;;;3.53;1.92;;;8.50;77.90;;;;;;6275965;22;20058;-74
2022/01/23 11:31:43;;;;;;;8.32;6.50;;;8.50;77.60;;;;;;6276186;22;20027;-75
2022/01/23 11:34:12;;;;;;;5.38;3.65;;;8.50;77.30;;;;;;6246982;22;20051;-74
2022/01/23 11:36:38;;;;;;;4.38;2.70;;;8.50;77.00;;;;;;6271642;22;20026;-75
2022/01/23 11:39:13;;;;;;;4.35;2.95;;;8.50;76.80;;;;;;6273786;22;20019;-76
2022/01/23 11:56:38;;;;;;;2.80;1.70;;;8.70;76.00;;;;;;6272164;22;20024;-76
2022/01/23 11:59:18;;;;;;;3.63;1.77;;;8.70;75.70;;;;;;6277783;22;20054;-76
2022/01/23 12:01:47;;;;;;;2.90;1.60;;;8.70;75.80;;;;;;6291744;22;20004;-76
2022/01/23 12:04:19;;;;;;;3.55;2.28;;;9.00;75.80;;;;;;6283911;22;20031;-76
2022/01/23 12:07:15;;;;;;;2.03;1.10;;;8.80;75.60;;;;;;6279299;22;20015;-76
2022/01/23 12:10:02;;;;;;;1.95;1.15;;;8.80;74.80;;;;;;6277124;22;20019;-75
2022/01/23 12:12:39;;;;;;;3.10;1.40;;;8.80;74.50;;;;;;6277063;22;20012;-75
2022/01/23 12:18:17;;;;;;;1.70;1.10;;;8.80;74.30;;;;;;6275134;22;20020;-86
2022/01/23 12:20:45;;;;;;;1.98;1.10;;;9.10;74.70;;;;;;6250346;22;20467;-83
2022/01/23 12:23:11;;;;;;;2.35;0.70;;;9.10;74.70;;;;;;6277467;22;20015;-84
2022/01/23 12:25:56;;;;;;;2.15;0.70;;;8.80;74.30;;;;;;6276011;22;20020;-84
2022/01/23 12:28:29;;;;;;;3.65;0.88;;;9.20;73.90;;;;;;6276084;22;20027;-84
2022/01/23 12:31:08;;;;;;;1.90;0.93;;;8.90;73.90;;;;;;6277498;22;20022;-84
2022/01/23 12:33:40;;;;;;;2.58;1.13;;;8.90;73.90;;;;;;6275759;22;20012;-83
2022/01/23 12:36:14;;;;;;;2.70;1.55;;;8.90;73.80;;;;;;6250438;22;20027;-83
2022/01/23 12:38:53;;;;;;;2.88;1.75;;;8.90;73.80;;;;;;6277045;22;20018;-84
2022/01/23 12:41:25;;;;;;;4.70;2.20;;;8.90;73.60;;;;;;6251645;22;20038;-82
2022/01/23 12:43:55;;;;;;;3.78;1.80;;;8.90;73.70;;;;;;6277419;22;20015;-82
2022/01/23 12:46:47;;;;;;;3.53;1.80;;;8.90;73.70;;;;;;6277387;22;20011;-82
2022/01/23 12:49:26;;;;;;;3.72;1.80;;;9.00;73.50;;;;;;6277268;22;20015;-85
2022/01/23 12:52:08;;;;;;;3.75;1.90;;;8.90;73.60;;;;;;6276527;22;20102;-85
2022/01/23 12:54:48;;;;;;;5.15;2.65;;;9.10;73.60;;;;;;6250990;22;20478;-84
2022/01/23 12:57:41;;;;;;;4.03;1.77;;;9.00;73.80;;;;;;6277177;22;20015;-83
2022/01/23 13:00:10;;;;;;;3.55;1.80;;;9.00;73.60;;;;;;6277012;22;20443;-82
2022/01/23 13:02:45;;;;;;;3.33;1.88;;;9.00;73.90;;;;;;6283255;22;20428;-87
2022/01/23 13:05:11;;;;;;;3.60;1.92;;;9.00;73.70;;;;;;6285041;22;20130;-90
2022/01/23 13:12:51;;;;;;;3.70;1.48;;;9.00;73.40;;;;;;6278306;22;20046;-84
2022/01/23 13:15:38;;;;;;;4.60;1.38;;;9.00;73.30;;;;;;6251234;22;20027;-87
2022/01/23 13:32:04;;;;;;;3.10;1.55;;;9.00;73.00;;;;;;6281529;22;20339;-85
2022/01/23 13:34:36;;;;;;;3.00;1.40;;;9.00;73.00;;;;;;6277138;22;20090;-85
2022/01/23 13:37:09;;;;;;;2.03;1.10;;;9.00;72.70;;;;;;6277396;22;20030;-84
2022/01/23 13:39:52;;;;;;;3.20;1.50;;;9.00;72.70;;;;;;6278782;22;20367;-83
2022/01/23 13:51:30;;;;;;;2.08;1.13;;;9.00;72.40;;;;;;6276489;22;20027;-85
2022/01/23 13:59:40;;;;;;;2.83;1.33;;;9.00;72.20;;;;;;6276618;22;20061;-87
2022/01/23 14:02:20;;;;;;;2.75;1.50;;;9.00;72.30;;;;;;6277019;22;20090;-83
2022/01/23 14:05:11;;;;;;;2.10;1.33;;;9.00;72.30;;;;;;6250562;22;20150;-87
2022/01/23 14:07:37;;;;;;;2.22;1.33;;;9.00;72.20;;;;;;6276662;22;20020;-83
2022/01/23 14:10:19;;;;;;;3.35;1.83;;;9.20;72.50;;;;;;6276543;22;20138;-83
2022/01/23 14:12:47;;;;;;;3.65;1.70;;;9.00;72.20;;;;;;6251217;22;20015;-87
2022/01/23 14:15:16;;;;;;;2.83;1.10;;;8.90;72.20;;;;;;6272418;22;20042;-87
2022/01/23 14:17:42;;;;;;;1.60;1.10;;;9.00;72.20;;;;;;6245285;22;20043;-87
2022/01/23 14:20:10;;;;;;;2.55;1.08;;;8.90;72.10;;;;;;6271770;22;20706;-88
2022/01/23 14:22:38;;;;;;;3.22;1.70;;;9.00;72.10;;;;;;6272457;22;20011;-87
2022/01/23 14:25:09;;;;;;;3.17;1.90;;;9.00;72.00;;;;;;6272408;22;20106;-87
2022/01/23 14:27:36;;;;;;;2.47;1.75;;;9.00;72.00;;;;;;6272381;22;20016;-87
2022/01/23 14:30:06;;;;;;;2.30;1.35;;;8.90;72.40;;;;;;6272210;22;20027;-88
2022/01/23 14:32:47;;;;;;;2.80;1.50;;;8.90;71.90;;;;;;6271351;22;20019;-87
2022/01/23 14:35:17;;;;;;;2.50;1.27;;;8.90;71.80;;;;;;6272779;22;20153;-87
2022/01/23 14:37:45;;;;;;;2.00;1.33;;;8.90;71.80;;;;;;6270443;22;20047;-86
2022/01/23 14:40:26;;;;;;;1.95;1.20;;;8.90;71.80;;;;;;6246088;22;20019;-87
2022/01/23 14:43:06;;;;;;;2.75;2.05;;;8.90;71.80;;;;;;6273441;22;20047;-86
2022/01/23 14:45:35;;;;;;;3.67;1.65;;;8.90;71.80;;;;;;6270700;22;20022;-88
2022/01/23 14:48:02;;;;;;;1.88;1.40;;;8.70;71.80;;;;;;6272088;22;20011;-88
2022/01/23 14:51:06;;;;;;;2.65;1.55;;;8.80;71.70;;;;;;6246427;22;20199;-87
2022/01/23 14:53:37;;;;;;;2.30;1.30;;;8.80;71.50;;;;;;6247403;22;20028;-88
2022/01/23 14:56:06;;;;;;;2.50;1.50;;;8.80;71.70;;;;;;6246664;22;20016;-89
2022/01/23 14:58:33;;;;;;;1.98;1.20;;;8.80;71.70;;;;;;6271057;22;20455;-87
2022/01/23 15:01:00;;;;;;;3.15;1.52;;;8.70;71.70;;;;;;6275479;22;20102;-89
2022/01/23 15:03:31;;;;;;;3.38;1.65;;;8.70;71.70;;;;;;6276383;22;20050;-88
2022/01/23 15:05:59;;;;;;;3.70;2.65;;;8.70;71.70;;;;;;6276722;22;20020;-89
2022/01/23 15:08:25;;;;;;;3.10;2.33;;;9.00;71.90;;;;;;6278638;22;20043;-88
2022/01/23 15:10:55;;;;;;;2.63;2.00;;;9.10;71.80;;;;;;6253749;22;20030;-89
2022/01/23 15:13:22;;;;;;;2.67;1.38;;;8.70;71.60;;;;;;6279075;22;20081;-89
2022/01/23 15:15:51;;;;;;;3.00;2.17;;;8.70;71.60;;;;;;6278394;22;20305;-88
2022/01/23 15:18:29;;;;;;;5.72;3.78;;;9.00;71.80;;;;;;6276369;22;20016;-89
2022/01/23 15:20:54;;;;;;;5.03;3.80;;;8.60;71.50;;;;;;6276224;22;20410;-88
2022/01/23 15:23:20;;;;;;;4.50;3.08;;;8.60;71.60;;;;;;6276616;22;20043;-88
2022/01/23 15:25:46;;;;;;;4.00;3.28;;;8.80;71.80;;;;;;6276861;22;20012;-89
2022/01/23 15:28:13;;;;;;;3.47;2.58;;;8.60;71.70;;;;;;6278729;22;20012;-87
2022/01/23 15:33:27;;;;;;;3.47;2.22;;;8.60;71.80;;;;;;6264671;22;20050;-87
2022/01/23 15:36:01;;;;;;;3.58;2.10;;;8.60;71.80;;;;;;6250934;22;20051;-87
2022/01/23 15:38:29;;;;;;;3.35;2.05;;;8.60;71.80;;;;;;6279083;22;20019;-89
2022/01/23 15:40:55;;;;;;;3.75;2.28;;;8.90;72.00;;;;;;6226186;22;20034;-88
2022/01/23 15:43:20;;;;;;;2.92;1.80;;;8.60;71.90;;;;;;6276767;22;20008;-87
2022/01/23 15:45:46;;;;;;;2.78;1.70;;;8.50;71.90;;;;;;6251746;22;20043;-90
2022/01/23 15:48:12;;;;;;;3.03;2.03;;;8.50;71.90;;;;;;6253234;22;20081;-91
2022/01/23 15:50:38;;;;;;;2.10;1.52;;;8.50;71.90;;;;;;6252839;22;20016;-91
2022/01/23 15:53:03;;;;;;;3.15;1.25;;;8.50;71.90;;;;;;6282443;22;20022;-91
2022/01/23 15:55:30;;;;;;;4.10;2.13;;;8.50;71.70;;;;;;6253966;22;20050;-90
2022/01/23 15:57:56;;;;;;;4.07;1.70;;;8.60;71.60;;;;;;6253874;22;20051;-90
2022/01/23 16:00:24;;;;;;;5.50;2.40;;;8.60;71.50;;;;;;6262740;22;20016;-90
2022/01/23 16:02:50;;;;;;;3.17;1.55;;;8.40;71.40;;;;;;6273449;22;20016;-89
2022/01/23 16:05:18;;;;;;;2.85;1.55;;;8.40;71.40;;;;;;6266003;22;20094;-90
2022/01/23 16:07:44;;;;;;;3.15;1.50;;;8.70;71.70;;;;;;6285399;22;20037;-90
2022/01/23 16:10:10;;;;;;;2.78;1.48;;;8.40;71.50;;;;;;6255215;22;20491;-91
2022/01/23 16:12:38;;;;;;;2.83;1.58;;;8.40;71.60;;;;;;6283197;22;20094;-93
2022/01/23 16:15:09;;;;;;;3.42;1.65;;;8.40;71.70;;;;;;6229021;22;20149;-89
2022/01/23 16:17:35;;;;;;;3.08;1.88;;;8.40;71.80;;;;;;6256494;22;20022;-89
2022/01/23 16:20:02;;;;;;;3.30;1.80;;;8.30;71.80;;;;;;6256595;22;20012;-91
2022/01/23 16:22:28;;;;;;;3.17;2.28;;;8.70;72.10;;;;;;6256353;22;20023;-93
2022/01/23 16:24:54;;;;;;;2.92;2.35;;;8.30;71.90;;;;;;6256011;22;20505;-90
2022/01/23 16:27:20;;;;;;;2.83;2.03;;;8.30;71.90;;;;;;6254198;22;20062;-91
2022/01/23 16:29:46;;;;;;;3.00;2.08;;;8.20;71.90;;;;;;6254336;22;20094;-95
2022/01/23 16:32:12;;;;;;;3.97;1.85;;;8.20;71.80;;;;;;6251245;22;20015;-80
2022/01/23 16:34:38;;;;;;;3.55;2.15;;;8.30;71.70;;;;;;6250041;22;20109;-80
2022/01/23 16:37:04;;;;;;;3.05;2.30;;;8.20;71.30;;;;;;6278463;22;20071;-81
2022/01/23 16:39:30;;;;;;;3.95;2.00;;;8.20;71.20;;;;;;6277527;22;20022;-80
2022/01/23 16:41:55;;;;;;;2.85;1.85;;;8.20;71.30;;;;;;6278371;22;20370;-79
2022/01/23 16:44:26;;;;;;;3.35;2.10;;;8.20;71.40;;;;;;6251038;22;20015;-80
2022/01/23 16:46:52;;;;;;;4.88;2.30;;;8.20;71.50;;;;;;6250614;22;20439;-78
2022/01/23 16:49:18;;;;;;;3.97;1.90;;;8.10;71.60;;;;;;6278048;22;20011;-79